sensor_id;sensor_type;location;lat;lon;timestamp;temperature;humidity
59301;DHT22;45073;52.740;6.784;2023-01-26T00:00:53;-0.20;99.90
59301;DHT22;45073;52.740;6.784;2023-01-26T00:03:19;-0.20;99.90
59301;DHT22;45073;52.740;6.784;2023-01-26T00:05:45;-0.20;99.90
59301;DHT22;45073;52.740;6.784;2023-01-26T00:08:11;-0.10;99.90
59301;DHT22;45073;52.740;6.784;2023-01-26T00:10:38;-0.10;99.90
59301;DHT22;45073;52.740;6.784;2023-01-26T00:13:05;-0.20;99.90
59301;DHT22;45073;52.740;6.784;2023-01-26T00:15:32;-0.10;99.90
59301;DHT22;45073;52.740;6.784;2023-01-26T00:17:58;-0.10;99.90
59301;DHT22;45073;52.740;6.784;2023-01-26T00:20:25;-0.10;99.90
59301;DHT22;45073;52.740;6.784;2023-01-26T00:22:50;-0.10;99.90
59301;DHT22;45073;52.740;6.784;2023-01-26T00:25:16;-0.10;99.90
59301;DHT22;45073;52.740;6.784;2023-01-26T00:27:41;-0.10;99.90
59301;DHT22;45073;52.740;6.784;2023-01-26T00:30:07;-0.10;99.90
59301;DHT22;45073;52.740;6.784;2023-01-26T00:32:36;-0.10;99.90
59301;DHT22;45073;52.740;6.784;2023-01-26T00:35:03;-0.10;99.90
59301;DHT22;45073;52.740;6.784;2023-01-26T00:37:29;-0.10;99.90
59301;DHT22;45073;52.740;6.784;2023-01-26T00:39:55;-0.10;99.90
59301;DHT22;45073;52.740;6.784;2023-01-26T00:42:21;-0.10;99.90
59301;DHT22;45073;52.740;6.784;2023-01-26T00:44:49;-0.10;99.90
59301;DHT22;45073;52.740;6.784;2023-01-26T00:47:15;-0.10;99.90
59301;DHT22;45073;52.740;6.784;2023-01-26T00:49:41;-0.10;99.90
59301;DHT22;45073;52.740;6.784;2023-01-26T00:52:06;-0.10;99.90
59301;DHT22;45073;52.740;6.784;2023-01-26T00:54:32;-0.10;99.90
59301;DHT22;45073;52.740;6.784;2023-01-26T00:56:58;-0.10;99.90
59301;DHT22;45073;52.740;6.784;2023-01-26T00:59:23;-0.10;99.90
59301;DHT22;45073;52.740;6.784;2023-01-26T01:01:50;-0.10;99.90
59301;DHT22;45073;52.740;6.784;2023-01-26T01:04:16;-0.10;99.90
59301;DHT22;45073;52.740;6.784;2023-01-26T01:06:42;-0.10;99.90
59301;DHT22;45073;52.740;6.784;2023-01-26T01:09:08;-0.10;99.90
59301;DHT22;45073;52.740;6.784;2023-01-26T01:11:34;-0.10;99.90
59301;DHT22;45073;52.740;6.784;2023-01-26T01:14:00;-0.10;99.90
59301;DHT22;45073;52.740;6.784;2023-01-26T01:16:26;-0.10;99.90
59301;DHT22;45073;52.740;6.784;2023-01-26T01:18:53;-0.10;99.90
59301;DHT22;45073;52.740;6.784;2023-01-26T01:21:20;-0.10;99.90
59301;DHT22;45073;52.740;6.784;2023-01-26T01:23:46;-0.10;99.90
59301;DHT22;45073;52.740;6.784;2023-01-26T01:26:12;-0.10;99.90
59301;DHT22;45073;52.740;6.784;2023-01-26T01:28:38;-0.10;99.90
59301;DHT22;45073;52.740;6.784;2023-01-26T01:31:12;-0.10;99.90
59301;DHT22;45073;52.740;6.784;2023-01-26T01:33:38;-0.10;99.90
59301;DHT22;45073;52.740;6.784;2023-01-26T01:36:06;-0.10;99.90
59301;DHT22;45073;52.740;6.784;2023-01-26T01:38:32;0.00;99.90
59301;DHT22;45073;52.740;6.784;2023-01-26T01:40:58;0.00;99.90
59301;DHT22;45073;52.740;6.784;2023-01-26T01:43:25;0.00;99.90
59301;DHT22;45073;52.740;6.784;2023-01-26T01:45:52;0.00;99.90
59301;DHT22;45073;52.740;6.784;2023-01-26T01:48:36;0.00;99.90
59301;DHT22;45073;52.740;6.784;2023-01-26T01:51:06;0.00;99.90
59301;DHT22;45073;52.740;6.784;2023-01-26T01:53:35;0.00;99.90
59301;DHT22;45073;52.740;6.784;2023-01-26T01:56:05;0.00;99.90
59301;DHT22;45073;52.740;6.784;2023-01-26T01:58:36;0.00;99.90
59301;DHT22;45073;52.740;6.784;2023-01-26T02:01:04;0.00;99.90
59301;DHT22;45073;52.740;6.784;2023-01-26T02:03:30;0.10;99.90
59301;DHT22;45073;52.740;6.784;2023-01-26T02:06:02;0.00;99.90
59301;DHT22;45073;52.740;6.784;2023-01-26T02:08:42;0.10;99.90
59301;DHT22;45073;52.740;6.784;2023-01-26T02:11:12;0.10;99.90
59301;DHT22;45073;52.740;6.784;2023-01-26T02:13:40;0.10;99.90
59301;DHT22;45073;52.740;6.784;2023-01-26T02:16:06;0.10;99.90
59301;DHT22;45073;52.740;6.784;2023-01-26T02:18:32;0.00;99.90
59301;DHT22;45073;52.740;6.784;2023-01-26T02:21:00;0.10;99.90
59301;DHT22;45073;52.740;6.784;2023-01-26T02:26:14;0.10;99.90
59301;DHT22;45073;52.740;6.784;2023-01-26T02:28:41;0.10;99.90
59301;DHT22;45073;52.740;6.784;2023-01-26T02:31:09;0.10;99.90
59301;DHT22;45073;52.740;6.784;2023-01-26T02:33:35;0.10;99.90
59301;DHT22;45073;52.740;6.784;2023-01-26T02:36:02;0.10;99.90
59301;DHT22;45073;52.740;6.784;2023-01-26T02:38:32;0.10;99.90
59301;DHT22;45073;52.740;6.784;2023-01-26T02:41:04;0.20;99.90
59301;DHT22;45073;52.740;6.784;2023-01-26T02:43:31;0.20;99.90
59301;DHT22;45073;52.740;6.784;2023-01-26T02:45:57;0.20;99.90
59301;DHT22;45073;52.740;6.784;2023-01-26T02:48:23;0.20;99.90
59301;DHT22;45073;52.740;6.784;2023-01-26T02:51:11;0.20;99.90
59301;DHT22;45073;52.740;6.784;2023-01-26T02:53:39;0.20;99.90
59301;DHT22;45073;52.740;6.784;2023-01-26T02:56:05;0.20;99.90
59301;DHT22;45073;52.740;6.784;2023-01-26T02:58:31;0.30;99.90
59301;DHT22;45073;52.740;6.784;2023-01-26T03:00:56;0.30;99.90
59301;DHT22;45073;52.740;6.784;2023-01-26T03:03:24;0.30;99.90
59301;DHT22;45073;52.740;6.784;2023-01-26T03:05:51;0.30;99.90
59301;DHT22;45073;52.740;6.784;2023-01-26T03:08:17;0.30;99.90
59301;DHT22;45073;52.740;6.784;2023-01-26T03:10:43;0.30;99.90
59301;DHT22;45073;52.740;6.784;2023-01-26T03:13:11;0.30;99.90
59301;DHT22;45073;52.740;6.784;2023-01-26T03:15:37;0.30;99.90
59301;DHT22;45073;52.740;6.784;2023-01-26T03:18:16;0.30;99.90
59301;DHT22;45073;52.740;6.784;2023-01-26T03:21:02;0.30;99.90
59301;DHT22;45073;52.740;6.784;2023-01-26T03:23:48;0.30;99.90
59301;DHT22;45073;52.740;6.784;2023-01-26T03:26:33;0.40;99.90
59301;DHT22;45073;52.740;6.784;2023-01-26T03:29:17;0.40;99.90
59301;DHT22;45073;52.740;6.784;2023-01-26T03:31:43;0.40;99.90
59301;DHT22;45073;52.740;6.784;2023-01-26T03:34:09;0.40;99.90
59301;DHT22;45073;52.740;6.784;2023-01-26T03:36:34;0.40;99.90
59301;DHT22;45073;52.740;6.784;2023-01-26T03:39:01;0.40;99.90
59301;DHT22;45073;52.740;6.784;2023-01-26T03:41:27;0.40;99.90
59301;DHT22;45073;52.740;6.784;2023-01-26T03:44:11;0.40;99.90
59301;DHT22;45073;52.740;6.784;2023-01-26T03:46:55;0.40;99.90
59301;DHT22;45073;52.740;6.784;2023-01-26T03:49:39;0.40;99.90
59301;DHT22;45073;52.740;6.784;2023-01-26T03:52:23;0.50;99.90
59301;DHT22;45073;52.740;6.784;2023-01-26T03:55:07;0.50;99.90
59301;DHT22;45073;52.740;6.784;2023-01-26T03:57:52;0.50;99.90
59301;DHT22;45073;52.740;6.784;2023-01-26T04:00:17;0.50;99.90
59301;DHT22;45073;52.740;6.784;2023-01-26T04:02:43;0.50;99.90
59301;DHT22;45073;52.740;6.784;2023-01-26T04:05:27;0.50;99.90
59301;DHT22;45073;52.740;6.784;2023-01-26T04:08:11;0.50;99.90
59301;DHT22;45073;52.740;6.784;2023-01-26T04:10:49;0.50;99.90
59301;DHT22;45073;52.740;6.784;2023-01-26T04:13:17;0.50;99.90
59301;DHT22;45073;52.740;6.784;2023-01-26T04:16:02;0.60;99.90
59301;DHT22;45073;52.740;6.784;2023-01-26T04:18:46;0.50;99.90
59301;DHT22;45073;52.740;6.784;2023-01-26T04:21:30;0.50;99.90
59301;DHT22;45073;52.740;6.784;2023-01-26T04:23:58;0.50;99.90
59301;DHT22;45073;52.740;6.784;2023-01-26T04:26:26;0.50;99.90
59301;DHT22;45073;52.740;6.784;2023-01-26T04:29:08;0.60;99.90
59301;DHT22;45073;52.740;6.784;2023-01-26T04:31:35;0.60;99.90
59301;DHT22;45073;52.740;6.784;2023-01-26T04:34:04;0.60;99.90
59301;DHT22;45073;52.740;6.784;2023-01-26T04:36:30;0.60;99.90
59301;DHT22;45073;52.740;6.784;2023-01-26T04:38:56;0.60;99.90
59301;DHT22;45073;52.740;6.784;2023-01-26T04:41:22;0.60;99.90
59301;DHT22;45073;52.740;6.784;2023-01-26T04:43:48;0.60;99.90
59301;DHT22;45073;52.740;6.784;2023-01-26T04:46:14;0.70;99.90
59301;DHT22;45073;52.740;6.784;2023-01-26T04:48:40;0.70;99.90
59301;DHT22;45073;52.740;6.784;2023-01-26T04:51:12;0.70;99.90
59301;DHT22;45073;52.740;6.784;2023-01-26T04:53:38;0.70;99.90
59301;DHT22;45073;52.740;6.784;2023-01-26T04:56:04;0.70;99.90
59301;DHT22;45073;52.740;6.784;2023-01-26T04:58:31;0.70;99.90
59301;DHT22;45073;52.740;6.784;2023-01-26T05:00:57;0.70;99.90
59301;DHT22;45073;52.740;6.784;2023-01-26T05:03:25;0.70;99.90
59301;DHT22;45073;52.740;6.784;2023-01-26T05:05:52;0.70;99.90
59301;DHT22;45073;52.740;6.784;2023-01-26T05:08:19;0.70;99.90
59301;DHT22;45073;52.740;6.784;2023-01-26T05:10:45;0.70;99.90
59301;DHT22;45073;52.740;6.784;2023-01-26T05:13:12;0.80;99.90
59301;DHT22;45073;52.740;6.784;2023-01-26T05:15:38;0.80;99.90
59301;DHT22;45073;52.740;6.784;2023-01-26T05:18:05;0.80;99.90
59301;DHT22;45073;52.740;6.784;2023-01-26T05:20:31;0.80;99.90
59301;DHT22;45073;52.740;6.784;2023-01-26T05:22:57;0.80;99.90
59301;DHT22;45073;52.740;6.784;2023-01-26T05:25:23;0.80;99.90
59301;DHT22;45073;52.740;6.784;2023-01-26T05:27:49;0.80;99.90
59301;DHT22;45073;52.740;6.784;2023-01-26T05:30:14;0.80;99.90
59301;DHT22;45073;52.740;6.784;2023-01-26T05:32:40;0.80;99.90
59301;DHT22;45073;52.740;6.784;2023-01-26T05:35:07;0.80;99.90
59301;DHT22;45073;52.740;6.784;2023-01-26T05:37:33;0.90;99.90
59301;DHT22;45073;52.740;6.784;2023-01-26T05:39:59;0.80;99.90
59301;DHT22;45073;52.740;6.784;2023-01-26T05:42:25;0.90;99.90
59301;DHT22;45073;52.740;6.784;2023-01-26T05:44:51;0.90;99.90
59301;DHT22;45073;52.740;6.784;2023-01-26T05:47:18;0.90;99.90
59301;DHT22;45073;52.740;6.784;2023-01-26T05:49:44;0.90;99.90
59301;DHT22;45073;52.740;6.784;2023-01-26T05:52:20;0.90;99.90
59301;DHT22;45073;52.740;6.784;2023-01-26T05:54:46;0.90;99.90
59301;DHT22;45073;52.740;6.784;2023-01-26T05:57:12;0.90;99.90
59301;DHT22;45073;52.740;6.784;2023-01-26T05:59:38;0.90;99.90
59301;DHT22;45073;52.740;6.784;2023-01-26T06:02:03;0.90;99.90
59301;DHT22;45073;52.740;6.784;2023-01-26T06:04:29;0.90;99.90
59301;DHT22;45073;52.740;6.784;2023-01-26T06:06:56;0.90;99.90
59301;DHT22;45073;52.740;6.784;2023-01-26T06:09:22;0.90;99.90
59301;DHT22;45073;52.740;6.784;2023-01-26T06:11:48;0.90;99.90
59301;DHT22;45073;52.740;6.784;2023-01-26T06:14:14;0.90;99.90
59301;DHT22;45073;52.740;6.784;2023-01-26T06:16:40;0.90;99.90
59301;DHT22;45073;52.740;6.784;2023-01-26T06:19:06;0.90;99.90
59301;DHT22;45073;52.740;6.784;2023-01-26T06:21:33;0.90;99.90
59301;DHT22;45073;52.740;6.784;2023-01-26T06:23:59;0.90;99.90
59301;DHT22;45073;52.740;6.784;2023-01-26T06:26:24;0.90;99.90
59301;DHT22;45073;52.740;6.784;2023-01-26T06:28:51;0.90;99.90
59301;DHT22;45073;52.740;6.784;2023-01-26T06:31:18;0.90;99.90
59301;DHT22;45073;52.740;6.784;2023-01-26T06:33:44;0.90;99.90
59301;DHT22;45073;52.740;6.784;2023-01-26T06:41:13;1.00;99.90
59301;DHT22;45073;52.740;6.784;2023-01-26T06:43:39;1.00;99.90
59301;DHT22;45073;52.740;6.784;2023-01-26T06:46:08;1.00;99.90
59301;DHT22;45073;52.740;6.784;2023-01-26T06:48:34;1.00;99.90
59301;DHT22;45073;52.740;6.784;2023-01-26T06:53:54;1.10;99.90
59301;DHT22;45073;52.740;6.784;2023-01-26T06:56:21;1.00;99.90
59301;DHT22;45073;52.740;6.784;2023-01-26T06:58:47;1.00;99.90
59301;DHT22;45073;52.740;6.784;2023-01-26T07:01:19;1.10;99.90
59301;DHT22;45073;52.740;6.784;2023-01-26T07:03:47;1.10;99.90
59301;DHT22;45073;52.740;6.784;2023-01-26T07:06:13;1.10;99.90
59301;DHT22;45073;52.740;6.784;2023-01-26T07:08:38;1.10;99.90
59301;DHT22;45073;52.740;6.784;2023-01-26T07:11:05;1.10;99.90
59301;DHT22;45073;52.740;6.784;2023-01-26T07:13:31;1.10;99.90
59301;DHT22;45073;52.740;6.784;2023-01-26T07:16:04;1.10;99.90
59301;DHT22;45073;52.740;6.784;2023-01-26T07:18:30;1.10;99.90
59301;DHT22;45073;52.740;6.784;2023-01-26T07:21:01;1.20;99.90
59301;DHT22;45073;52.740;6.784;2023-01-26T07:23:27;1.20;99.90
59301;DHT22;45073;52.740;6.784;2023-01-26T07:25:53;1.20;99.90
59301;DHT22;45073;52.740;6.784;2023-01-26T07:28:19;1.20;99.90
59301;DHT22;45073;52.740;6.784;2023-01-26T07:30:44;1.20;99.90
59301;DHT22;45073;52.740;6.784;2023-01-26T07:33:10;1.20;99.90
59301;DHT22;45073;52.740;6.784;2023-01-26T07:35:36;1.20;99.90
59301;DHT22;45073;52.740;6.784;2023-01-26T07:38:04;1.20;99.90
59301;DHT22;45073;52.740;6.784;2023-01-26T07:40:30;1.20;99.90
59301;DHT22;45073;52.740;6.784;2023-01-26T07:42:56;1.30;99.90
59301;DHT22;45073;52.740;6.784;2023-01-26T07:45:23;1.30;99.90
59301;DHT22;45073;52.740;6.784;2023-01-26T07:47:49;1.30;99.90
59301;DHT22;45073;52.740;6.784;2023-01-26T07:50:14;1.30;99.90
59301;DHT22;45073;52.740;6.784;2023-01-26T07:52:40;1.30;99.90
59301;DHT22;45073;52.740;6.784;2023-01-26T07:55:08;1.30;99.90
59301;DHT22;45073;52.740;6.784;2023-01-26T07:57:33;1.30;99.90
59301;DHT22;45073;52.740;6.784;2023-01-26T07:59:59;1.30;99.90
59301;DHT22;45073;52.740;6.784;2023-01-26T08:02:25;1.40;99.90
59301;DHT22;45073;52.740;6.784;2023-01-26T08:04:50;1.40;99.90
59301;DHT22;45073;52.740;6.784;2023-01-26T08:07:16;1.40;99.90
59301;DHT22;45073;52.740;6.784;2023-01-26T08:09:41;1.50;99.90
59301;DHT22;45073;52.740;6.784;2023-01-26T08:12:07;1.50;99.90
59301;DHT22;45073;52.740;6.784;2023-01-26T08:14:33;1.50;99.90
59301;DHT22;45073;52.740;6.784;2023-01-26T08:17:00;1.50;99.90
59301;DHT22;45073;52.740;6.784;2023-01-26T08:19:26;1.50;99.90
59301;DHT22;45073;52.740;6.784;2023-01-26T08:21:51;1.50;99.90
59301;DHT22;45073;52.740;6.784;2023-01-26T08:24:19;1.60;99.90
59301;DHT22;45073;52.740;6.784;2023-01-26T08:26:44;1.60;99.90
59301;DHT22;45073;52.740;6.784;2023-01-26T08:29:10;1.60;99.90
59301;DHT22;45073;52.740;6.784;2023-01-26T08:31:36;1.70;99.90
59301;DHT22;45073;52.740;6.784;2023-01-26T08:34:02;1.70;99.90
59301;DHT22;45073;52.740;6.784;2023-01-26T08:36:28;1.70;99.90
59301;DHT22;45073;52.740;6.784;2023-01-26T08:38:54;1.80;99.90
59301;DHT22;45073;52.740;6.784;2023-01-26T08:41:20;1.80;99.90
59301;DHT22;45073;52.740;6.784;2023-01-26T08:43:46;1.80;99.90
59301;DHT22;45073;52.740;6.784;2023-01-26T08:46:12;1.80;99.90
59301;DHT22;45073;52.740;6.784;2023-01-26T08:48:38;1.90;99.90
59301;DHT22;45073;52.740;6.784;2023-01-26T08:51:05;1.90;99.90
59301;DHT22;45073;52.740;6.784;2023-01-26T08:53:33;1.90;99.90
59301;DHT22;45073;52.740;6.784;2023-01-26T08:56:06;1.90;99.90
59301;DHT22;45073;52.740;6.784;2023-01-26T08:58:34;2.00;99.90
59301;DHT22;45073;52.740;6.784;2023-01-26T09:01:26;2.00;99.90
59301;DHT22;45073;52.740;6.784;2023-01-26T09:03:52;2.00;99.90
59301;DHT22;45073;52.740;6.784;2023-01-26T09:06:19;2.00;99.90
59301;DHT22;45073;52.740;6.784;2023-01-26T09:08:45;2.00;99.90
59301;DHT22;45073;52.740;6.784;2023-01-26T09:11:11;2.00;99.90
59301;DHT22;45073;52.740;6.784;2023-01-26T09:13:37;2.00;99.90
59301;DHT22;45073;52.740;6.784;2023-01-26T09:16:12;2.10;99.90
59301;DHT22;45073;52.740;6.784;2023-01-26T09:18:39;2.10;99.90
59301;DHT22;45073;52.740;6.784;2023-01-26T09:21:06;2.10;99.90
59301;DHT22;45073;52.740;6.784;2023-01-26T09:23:33;2.10;99.90
59301;DHT22;45073;52.740;6.784;2023-01-26T09:25:59;2.10;99.90
59301;DHT22;45073;52.740;6.784;2023-01-26T09:28:25;2.10;99.90
59301;DHT22;45073;52.740;6.784;2023-01-26T09:30:51;2.20;99.90
59301;DHT22;45073;52.740;6.784;2023-01-26T09:33:17;2.20;99.90
59301;DHT22;45073;52.740;6.784;2023-01-26T09:35:43;2.20;99.90
59301;DHT22;45073;52.740;6.784;2023-01-26T09:38:08;2.30;99.90
59301;DHT22;45073;52.740;6.784;2023-01-26T09:41:04;2.40;99.90
59301;DHT22;45073;52.740;6.784;2023-01-26T09:48:41;2.60;99.90
59301;DHT22;45073;52.740;6.784;2023-01-26T09:51:44;2.70;99.90
59301;DHT22;45073;52.740;6.784;2023-01-26T09:54:20;2.80;99.90
59301;DHT22;45073;52.740;6.784;2023-01-26T09:56:47;2.80;99.90
59301;DHT22;45073;52.740;6.784;2023-01-26T09:59:19;2.90;99.90
59301;DHT22;45073;52.740;6.784;2023-01-26T10:02:09;3.00;99.90
59301;DHT22;45073;52.740;6.784;2023-01-26T10:04:44;3.10;99.90
59301;DHT22;45073;52.740;6.784;2023-01-26T10:07:12;3.20;99.90
59301;DHT22;45073;52.740;6.784;2023-01-26T10:09:40;3.30;99.90
59301;DHT22;45073;52.740;6.784;2023-01-26T10:12:32;3.40;99.90
59301;DHT22;45073;52.740;6.784;2023-01-26T10:15:24;3.40;99.90
59301;DHT22;45073;52.740;6.784;2023-01-26T10:17:53;3.50;99.90
59301;DHT22;45073;52.740;6.784;2023-01-26T10:20:58;3.70;99.90
59301;DHT22;45073;52.740;6.784;2023-01-26T10:23:32;3.80;99.90
59301;DHT22;45073;52.740;6.784;2023-01-26T10:26:22;3.90;99.90
59301;DHT22;45073;52.740;6.784;2023-01-26T10:28:49;4.00;99.90
59301;DHT22;45073;52.740;6.784;2023-01-26T10:31:28;4.20;99.90
59301;DHT22;45073;52.740;6.784;2023-01-26T10:34:15;4.30;99.90
59301;DHT22;45073;52.740;6.784;2023-01-26T10:36:42;4.50;99.90
59301;DHT22;45073;52.740;6.784;2023-01-26T10:39:11;4.70;99.90
59301;DHT22;45073;52.740;6.784;2023-01-26T10:41:37;4.90;99.90
59301;DHT22;45073;52.740;6.784;2023-01-26T10:46:37;5.30;99.90
59301;DHT22;45073;52.740;6.784;2023-01-26T10:51:41;5.60;99.90
59301;DHT22;45073;52.740;6.784;2023-01-26T10:54:23;5.80;99.90
59301;DHT22;45073;52.740;6.784;2023-01-26T10:59:48;6.20;99.90
59301;DHT22;45073;52.740;6.784;2023-01-26T11:04:40;6.60;99.90
59301;DHT22;45073;52.740;6.784;2023-01-26T11:07:25;6.80;99.90
59301;DHT22;45073;52.740;6.784;2023-01-26T11:09:51;7.00;99.90
59301;DHT22;45073;52.740;6.784;2023-01-26T11:12:18;7.20;99.90
59301;DHT22;45073;52.740;6.784;2023-01-26T11:15:01;7.40;99.90
59301;DHT22;45073;52.740;6.784;2023-01-26T11:17:37;7.60;99.90
59301;DHT22;45073;52.740;6.784;2023-01-26T11:42:22;9.60;99.90
59301;DHT22;45073;52.740;6.784;2023-01-26T11:50:18;10.30;99.90
59301;DHT22;45073;52.740;6.784;2023-01-26T12:00:52;11.10;99.90
59301;DHT22;45073;52.740;6.784;2023-01-26T12:05:56;11.60;99.90
59301;DHT22;45073;52.740;6.784;2023-01-26T12:08:35;11.80;99.90
59301;DHT22;45073;52.740;6.784;2023-01-26T12:11:22;12.10;99.90
59301;DHT22;45073;52.740;6.784;2023-01-26T12:16:52;12.60;99.90
59301;DHT22;45073;52.740;6.784;2023-01-26T12:22:29;13.30;99.90
59301;DHT22;45073;52.740;6.784;2023-01-26T12:27:43;13.90;99.90
59301;DHT22;45073;52.740;6.784;2023-01-26T12:33:04;13.90;99.90
59301;DHT22;45073;52.740;6.784;2023-01-26T12:35:44;14.00;99.90
59301;DHT22;45073;52.740;6.784;2023-01-26T12:38:22;13.90;99.90
59301;DHT22;45073;52.740;6.784;2023-01-26T12:44:08;13.90;99.30
59301;DHT22;45073;52.740;6.784;2023-01-26T12:46:43;13.80;97.70
59301;DHT22;45073;52.740;6.784;2023-01-26T12:49:13;13.80;99.90
59301;DHT22;45073;52.740;6.784;2023-01-26T12:51:45;13.60;98.80
59301;DHT22;45073;52.740;6.784;2023-01-26T12:56:58;12.90;99.90
59301;DHT22;45073;52.740;6.784;2023-01-26T12:59:31;12.70;99.90
59301;DHT22;45073;52.740;6.784;2023-01-26T13:01:59;12.40;99.90
59301;DHT22;45073;52.740;6.784;2023-01-26T13:04:25;12.20;99.90
59301;DHT22;45073;52.740;6.784;2023-01-26T13:12:52;11.40;99.90
59301;DHT22;45073;52.740;6.784;2023-01-26T13:15:20;11.30;99.90
59301;DHT22;45073;52.740;6.784;2023-01-26T13:17:50;11.20;99.90
59301;DHT22;45073;52.740;6.784;2023-01-26T13:20:41;11.40;99.90
59301;DHT22;45073;52.740;6.784;2023-01-26T13:28:40;11.50;99.90
59301;DHT22;45073;52.740;6.784;2023-01-26T13:31:06;12.40;99.90
59301;DHT22;45073;52.740;6.784;2023-01-26T13:33:33;14.00;99.90
59301;DHT22;45073;52.740;6.784;2023-01-26T13:36:01;15.70;97.80
59301;DHT22;45073;52.740;6.784;2023-01-26T13:38:42;17.40;90.20
59301;DHT22;45073;52.740;6.784;2023-01-26T13:41:14;18.80;81.40
59301;DHT22;45073;52.740;6.784;2023-01-26T13:43:45;20.00;75.00
59301;DHT22;45073;52.740;6.784;2023-01-26T13:46:41;20.90;71.10
59301;DHT22;45073;52.740;6.784;2023-01-26T13:49:23;21.90;65.80
59301;DHT22;45073;52.740;6.784;2023-01-26T13:51:49;22.40;61.70
59301;DHT22;45073;52.740;6.784;2023-01-26T13:54:15;22.70;65.00
59301;DHT22;45073;52.740;6.784;2023-01-26T13:57:04;23.20;62.20
59301;DHT22;45073;52.740;6.784;2023-01-26T13:59:29;23.30;60.40
59301;DHT22;45073;52.740;6.784;2023-01-26T14:01:56;22.60;60.00
59301;DHT22;45073;52.740;6.784;2023-01-26T14:04:24;22.00;59.40
59301;DHT22;45073;52.740;6.784;2023-01-26T14:07:06;21.00;60.20
59301;DHT22;45073;52.740;6.784;2023-01-26T14:09:51;19.90;60.80
59301;DHT22;45073;52.740;6.784;2023-01-26T14:12:50;18.60;61.00
59301;DHT22;45073;52.740;6.784;2023-01-26T14:15:28;17.50;63.90
59301;DHT22;45073;52.740;6.784;2023-01-26T14:18:00;16.60;65.80
59301;DHT22;45073;52.740;6.784;2023-01-26T14:20:31;15.90;67.70
59301;DHT22;45073;52.740;6.784;2023-01-26T14:23:17;15.30;68.90
59301;DHT22;45073;52.740;6.784;2023-01-26T14:26:11;14.60;70.30
59301;DHT22;45073;52.740;6.784;2023-01-26T14:28:41;14.20;71.70
59301;DHT22;45073;52.740;6.784;2023-01-26T14:33:41;13.50;73.80
59301;DHT22;45073;52.740;6.784;2023-01-26T14:36:14;13.20;75.00
59301;DHT22;45073;52.740;6.784;2023-01-26T14:38:45;12.80;75.90
59301;DHT22;45073;52.740;6.784;2023-01-26T14:41:31;12.60;77.60
59301;DHT22;45073;52.740;6.784;2023-01-26T14:43:58;12.50;78.60
59301;DHT22;45073;52.740;6.784;2023-01-26T14:49:15;12.00;80.10
59301;DHT22;45073;52.740;6.784;2023-01-26T14:51:43;11.80;81.90
59301;DHT22;45073;52.740;6.784;2023-01-26T14:54:31;11.60;82.60
59301;DHT22;45073;52.740;6.784;2023-01-26T14:56:59;11.30;82.40
59301;DHT22;45073;52.740;6.784;2023-01-26T14:59:36;11.20;84.70
59301;DHT22;45073;52.740;6.784;2023-01-26T15:02:21;11.00;85.50
59301;DHT22;45073;52.740;6.784;2023-01-26T15:05:18;10.90;86.10
59301;DHT22;45073;52.740;6.784;2023-01-26T15:07:58;10.80;87.40
59301;DHT22;45073;52.740;6.784;2023-01-26T15:12:58;10.60;89.50
59301;DHT22;45073;52.740;6.784;2023-01-26T15:15:29;10.60;89.40
59301;DHT22;45073;52.740;6.784;2023-01-26T15:23:31;10.20;91.40
59301;DHT22;45073;52.740;6.784;2023-01-26T15:28:50;10.00;93.20
59301;DHT22;45073;52.740;6.784;2023-01-26T15:31:24;9.90;93.90
59301;DHT22;45073;52.740;6.784;2023-01-26T15:33:53;9.80;94.70
59301;DHT22;45073;52.740;6.784;2023-01-26T15:36:45;9.80;94.90
59301;DHT22;45073;52.740;6.784;2023-01-26T15:39:13;9.80;95.50
59301;DHT22;45073;52.740;6.784;2023-01-26T15:41:46;9.70;95.80
59301;DHT22;45073;52.740;6.784;2023-01-26T15:44:22;9.60;95.90
59301;DHT22;45073;52.740;6.784;2023-01-26T15:46:48;9.60;96.30
59301;DHT22;45073;52.740;6.784;2023-01-26T15:49:13;9.50;96.70
59301;DHT22;45073;52.740;6.784;2023-01-26T15:51:39;9.50;96.90
59301;DHT22;45073;52.740;6.784;2023-01-26T15:54:05;9.30;97.40
59301;DHT22;45073;52.740;6.784;2023-01-26T15:56:31;9.30;97.70
59301;DHT22;45073;52.740;6.784;2023-01-26T15:58:57;9.20;98.30
59301;DHT22;45073;52.740;6.784;2023-01-26T16:01:23;9.10;99.30
59301;DHT22;45073;52.740;6.784;2023-01-26T16:03:49;9.10;99.90
59301;DHT22;45073;52.740;6.784;2023-01-26T16:06:22;9.00;99.90
59301;DHT22;45073;52.740;6.784;2023-01-26T16:08:48;8.90;99.90
59301;DHT22;45073;52.740;6.784;2023-01-26T16:11:14;8.90;99.90
59301;DHT22;45073;52.740;6.784;2023-01-26T16:13:39;8.80;99.90
59301;DHT22;45073;52.740;6.784;2023-01-26T16:16:09;8.80;99.90
59301;DHT22;45073;52.740;6.784;2023-01-26T16:18:35;8.80;99.90
59301;DHT22;45073;52.740;6.784;2023-01-26T16:21:01;8.70;99.90
59301;DHT22;45073;52.740;6.784;2023-01-26T16:23:30;8.80;99.90
59301;DHT22;45073;52.740;6.784;2023-01-26T16:25:56;8.70;99.90
59301;DHT22;45073;52.740;6.784;2023-01-26T16:28:22;8.70;99.90
59301;DHT22;45073;52.740;6.784;2023-01-26T16:30:48;8.60;99.90
59301;DHT22;45073;52.740;6.784;2023-01-26T16:33:17;8.60;99.90
59301;DHT22;45073;52.740;6.784;2023-01-26T16:35:45;8.60;99.90
59301;DHT22;45073;52.740;6.784;2023-01-26T16:38:11;8.50;99.90
59301;DHT22;45073;52.740;6.784;2023-01-26T16:40:42;8.50;99.90
59301;DHT22;45073;52.740;6.784;2023-01-26T16:43:23;8.50;99.90
59301;DHT22;45073;52.740;6.784;2023-01-26T16:45:50;8.40;99.90
59301;DHT22;45073;52.740;6.784;2023-01-26T16:48:16;8.30;99.90
59301;DHT22;45073;52.740;6.784;2023-01-26T16:50:43;8.30;99.90
59301;DHT22;45073;52.740;6.784;2023-01-26T16:53:25;8.20;99.90
59301;DHT22;45073;52.740;6.784;2023-01-26T16:55:52;8.10;99.90
59301;DHT22;45073;52.740;6.784;2023-01-26T16:58:18;8.10;99.90
59301;DHT22;45073;52.740;6.784;2023-01-26T17:00:44;8.00;99.90
59301;DHT22;45073;52.740;6.784;2023-01-26T17:03:11;8.00;99.90
59301;DHT22;45073;52.740;6.784;2023-01-26T17:05:38;8.00;99.90
59301;DHT22;45073;52.740;6.784;2023-01-26T17:08:04;8.00;99.90
59301;DHT22;45073;52.740;6.784;2023-01-26T17:10:30;7.90;99.90
59301;DHT22;45073;52.740;6.784;2023-01-26T17:12:55;7.90;99.90
59301;DHT22;45073;52.740;6.784;2023-01-26T17:15:21;7.90;99.90
59301;DHT22;45073;52.740;6.784;2023-01-26T17:17:49;7.90;99.90
59301;DHT22;45073;52.740;6.784;2023-01-26T17:20:14;7.80;99.90
59301;DHT22;45073;52.740;6.784;2023-01-26T17:22:41;7.80;99.90
59301;DHT22;45073;52.740;6.784;2023-01-26T17:25:07;7.80;99.90
59301;DHT22;45073;52.740;6.784;2023-01-26T17:27:33;7.80;99.90
59301;DHT22;45073;52.740;6.784;2023-01-26T17:29:59;7.80;99.90
59301;DHT22;45073;52.740;6.784;2023-01-26T17:32:24;7.80;99.90
59301;DHT22;45073;52.740;6.784;2023-01-26T17:34:51;7.70;99.90
59301;DHT22;45073;52.740;6.784;2023-01-26T17:37:18;7.70;99.90
59301;DHT22;45073;52.740;6.784;2023-01-26T17:39:44;7.70;99.90
59301;DHT22;45073;52.740;6.784;2023-01-26T17:42:09;7.70;99.90
59301;DHT22;45073;52.740;6.784;2023-01-26T17:44:35;7.70;99.90
59301;DHT22;45073;52.740;6.784;2023-01-26T17:47:01;7.70;99.90
59301;DHT22;45073;52.740;6.784;2023-01-26T17:49:26;7.60;99.90